Time;durP1;ratioP1;P1;durP2;ratioP2;P2;SDS_P1;SDS_P2;PMS_P1;PMS_P2;Temp;Humidity;BMP_temperature;BMP_pressure;BME280_temperature;BME280_humidity;BME280_pressure;Samples;Min_cycle;Max_cycle;Signal;HPM_P1;HPM_P2
2023/10/09 00:01:53;;;;;;;;;13.50;13.50;;;;;15.89;84.49;101972.63;4969032;28;9607;-68
2023/10/09 00:04:20;;;;;;;;;16.67;16.00;;;;;15.89;84.35;101969.91;4969582;28;10277;-67
2023/10/09 00:06:47;;;;;;;;;19.75;18.75;;;;;15.89;84.40;101978.06;4970756;28;9506;-67
2023/10/09 00:11:56;;;;;;;;;13.75;13.25;;;;;15.88;84.54;101970.91;4975250;28;9623;-68
2023/10/09 00:14:24;;;;;;;;;17.75;16.50;;;;;15.90;84.40;101979.72;4982190;28;9445;-67
2023/10/09 00:19:37;;;;;;;;;21.00;18.25;;;;;15.89;84.52;101981.59;4969930;28;10234;-68
2023/10/09 00:22:04;;;;;;;;;21.25;21.25;;;;;15.90;84.28;101968.88;4963277;28;9589;-67
2023/10/09 00:24:33;;;;;;;;;15.50;13.75;;;;;15.89;84.33;101962.59;4977394;28;9678;-68
2023/10/09 00:27:12;;;;;;;;;16.00;15.75;;;;;15.90;84.32;101958.84;4980206;28;9580;-68
2023/10/09 00:29:46;;;;;;;;;15.67;15.00;;;;;15.92;84.56;101956.75;4978085;28;10318;-67
2023/10/09 00:32:26;;;;;;;;;20.00;18.25;;;;;15.92;84.83;101958.63;4977460;28;9474;-68
2023/10/09 00:34:58;;;;;;;;;13.50;13.50;;;;;15.93;84.70;101958.44;4970797;28;9593;-67
2023/10/09 00:37:26;;;;;;;;;16.00;15.25;;;;;15.95;84.71;101958.22;4965213;28;9432;-67
2023/10/09 00:39:56;;;;;;;;;17.50;15.75;;;;;15.97;84.94;101954.28;4991288;28;9615;-68
2023/10/09 00:42:32;;;;;;;;;17.25;15.75;;;;;15.98;84.96;101949.69;4970236;28;9530;-67
2023/10/09 00:45:07;;;;;;;;;20.00;19.50;;;;;15.97;84.87;101945.28;4986570;28;10388;-69
2023/10/09 00:47:34;;;;;;;;;20.50;17.75;;;;;15.98;84.96;101947.78;4966800;28;9797;-67
2023/10/09 00:50:20;;;;;;;;;21.50;17.25;;;;;16.00;85.09;101931.28;4969481;28;9613;-67
2023/10/09 00:53:08;;;;;;;;;21.25;18.75;;;;;16.03;85.19;101941.75;4978422;28;9754;-67
2023/10/09 00:55:44;;;;;;;;;20.25;17.25;;;;;16.04;85.33;101941.56;4970532;28;9646;-68
2023/10/09 00:58:13;;;;;;;;;18.50;16.50;;;;;16.07;85.44;101934.88;4960537;28;9579;-66
2023/10/09 01:11:22;;;;;;;;;19.25;17.00;;;;;16.17;86.01;101920.91;4985180;28;9422;-68
2023/10/09 01:13:52;;;;;;;;;16.00;15.00;;;;;16.20;86.58;101917.75;4953156;28;9473;-67
2023/10/09 01:16:22;;;;;;;;;17.50;17.00;;;;;16.22;86.47;101918.41;4989874;28;9558;-68
2023/10/09 01:18:57;;;;;;;;;16.50;13.00;;;;;16.24;86.28;101903.56;4980838;28;9515;-68
2023/10/09 01:21:26;;;;;;;;;17.67;14.33;;;;;16.26;86.87;101897.94;4966763;28;9377;-66
2023/10/09 01:26:26;;;;;;;;;13.00;13.00;;;;;16.31;86.75;101895.44;4981347;28;9323;-68
2023/10/09 01:28:57;;;;;;;;;11.67;8.67;;;;;16.33;87.10;101904.22;4979292;28;9244;-67
2023/10/09 01:31:26;;;;;;;;;11.67;11.67;;;;;16.36;87.08;101902.97;4968479;28;9939;-68
2023/10/09 01:33:54;;;;;;;;;13.00;13.00;;;;;16.37;87.18;101894.63;4976232;28;9295;-67
2023/10/09 01:36:31;;;;;;;;;15.00;15.00;;;;;16.37;86.75;101889.19;4985806;28;9960;-68
2023/10/09 01:39:21;;;;;;;;;14.67;13.00;;;;;16.39;86.79;101886.25;4989834;28;9370;-67
2023/10/09 01:41:49;;;;;;;;;12.00;12.00;;;;;16.40;86.80;101888.75;4971922;28;9257;-67
2023/10/09 01:44:16;;;;;;;;;14.00;14.00;;;;;16.41;86.71;101874.13;4981692;28;9298;-67
2023/10/09 01:46:45;;;;;;;;;17.00;15.00;;;;;16.42;87.05;101870.38;4970525;28;10051;-68
2023/10/09 01:49:21;;;;;;;;;12.67;10.67;;;;;16.42;86.88;101862.22;4972789;28;9372;-67
2023/10/09 01:51:50;;;;;;;;;12.00;12.00;;;;;16.45;87.20;101878.13;4985483;28;9242;-67
2023/10/09 01:54:33;;;;;;;;;13.67;11.67;;;;;16.47;86.93;101869.75;4973572;28;9151;-68
2023/10/09 01:57:05;;;;;;;;;11.00;10.00;;;;;16.47;86.96;101867.03;4980873;28;9242;-67
2023/10/09 01:59:32;;;;;;;;;12.33;12.00;;;;;16.48;87.05;101871.41;4985763;28;9414;-68
2023/10/09 02:02:02;;;;;;;;;19.00;13.00;;;;;16.49;87.15;101868.50;4970816;28;9121;-68
2023/10/09 02:04:29;;;;;;;;;9.00;9.00;;;;;16.48;86.86;101874.13;4979555;28;9148;-66
2023/10/09 02:06:55;;;;;;;;;10.33;9.67;;;;;16.48;86.85;101880.41;4981048;28;9074;-68
2023/10/09 02:09:29;;;;;;;;;12.00;11.00;;;;;16.49;86.83;101864.94;5001434;28;9148;-68
2023/10/09 02:11:57;;;;;;;;;12.00;12.00;;;;;16.50;86.99;101870.16;4982272;28;9995;-68
2023/10/09 02:14:24;;;;;;;;;10.33;10.33;;;;;16.52;87.16;101868.06;4987655;28;9169;-67
2023/10/09 02:17:03;;;;;;;;;7.00;7.00;;;;;16.52;87.06;101862.63;4975119;28;9256;-67
2023/10/09 02:19:42;;;;;;;;;8.00;8.00;;;;;16.54;87.14;101868.72;5000260;28;9259;-68
2023/10/09 02:22:15;;;;;;;;;10.00;9.00;;;;;16.58;87.09;101866.41;4986724;28;9204;-66
2023/10/09 02:24:59;;;;;;;;;14.67;8.67;;;;;16.56;86.90;101858.44;4972786;28;9257;-68
2023/10/09 02:27:41;;;;;;;;;12.67;10.33;;;;;16.60;86.81;101868.91;4982623;28;9820;-68
2023/10/09 02:30:15;;;;;;;;;8.67;8.00;;;;;16.57;86.96;101853.88;4965642;28;9367;-68
2023/10/09 02:32:43;;;;;;;;;10.67;9.67;;;;;16.60;87.10;101853.44;4967725;28;9086;-68
2023/10/09 02:35:37;;;;;;;;;7.33;7.00;;;;;16.60;87.13;101853.44;4987729;28;9011;-67
2023/10/09 02:37:58;;;;;;;;;12.33;10.33;;;;;16.62;86.97;101847.81;4980144;28;9088;-68
2023/10/09 02:40:33;;;;;;;;;8.67;8.67;;;;;16.63;86.99;101833.16;4971496;28;9140;-68
2023/10/09 02:43:00;;;;;;;;;9.33;9.00;;;;;16.64;87.43;101837.53;4984798;28;9111;-69
2023/10/09 02:45:34;;;;;;;;;9.00;8.00;;;;;16.66;87.31;101821.88;4970490;28;9229;-68
2023/10/09 02:48:08;;;;;;;;;7.67;5.67;;;;;16.66;87.27;101822.69;4975815;28;9188;-69
2023/10/09 02:50:38;;;;;;;;;10.33;6.00;;;;;16.66;87.10;101830.84;4982977;28;9074;-69
2023/10/09 02:53:09;;;;;;;;;13.00;11.67;;;;;16.68;87.28;101827.91;4976165;28;9110;-68
2023/10/09 02:55:38;;;;;;;;;8.00;7.67;;;;;16.69;87.22;101827.72;4975302;28;8982;-69
2023/10/09 02:58:07;;;;;;;;;9.33;9.33;;;;;16.69;87.44;101833.16;4983186;28;8986;-69
2023/10/09 03:00:36;;;;;;;;;6.33;6.33;;;;;16.68;87.13;101834.19;4991080;28;9206;-68
2023/10/09 03:03:06;;;;;;;;;5.67;5.33;;;;;16.68;87.26;101831.47;4969866;28;9195;-69
2023/10/09 03:05:33;;;;;;;;;6.00;6.00;;;;;16.69;87.07;101835.03;4973950;28;8846;-69
2023/10/09 03:08:02;;;;;;;;;6.67;6.33;;;;;16.68;87.17;101815.16;4996718;28;9091;-69
2023/10/09 03:10:28;;;;;;;;;6.67;6.67;;;;;16.68;87.36;101815.16;4974576;28;9029;-69
2023/10/09 03:12:55;;;;;;;;;7.67;7.67;;;;;16.68;87.32;101809.72;4970539;28;9019;-69
2023/10/09 03:15:22;;;;;;;;;6.00;6.00;;;;;16.69;87.14;101813.28;4971994;28;8989;-69
2023/10/09 03:17:49;;;;;;;;;5.33;4.33;;;;;16.70;87.16;101820.41;4971437;28;9207;-68
2023/10/09 03:20:17;;;;;;;;;10.00;8.00;;;;;16.69;87.32;101833.16;4967954;28;9056;-69
2023/10/09 03:22:45;;;;;;;;;4.67;4.67;;;;;16.71;87.56;101843.81;4990735;22;9184;-70
2023/10/09 03:25:12;;;;;;;;;6.00;5.00;;;;;16.72;87.44;101846.31;5010692;28;9187;-70
2023/10/09 03:27:46;;;;;;;;;6.00;6.00;;;;;16.74;87.15;101860.56;4990377;28;8952;-70
2023/10/09 03:30:22;;;;;;;;;9.33;7.00;;;;;16.75;87.02;101855.97;4987983;28;9042;-70
2023/10/09 03:32:51;;;;;;;;;5.67;5.33;;;;;16.74;87.17;101863.31;5010281;28;9041;-71
2023/10/09 03:35:25;;;;;;;;;6.00;5.00;;;;;16.78;87.69;101864.56;4992786;28;9074;-70
2023/10/09 03:38:00;;;;;;;;;9.00;8.33;;;;;16.79;87.61;101854.50;5010005;28;9885;-71
2023/10/09 03:40:31;;;;;;;;;8.67;8.00;;;;;16.82;87.57;101855.97;4992073;28;9119;-71
2023/10/09 03:43:01;;;;;;;;;8.33;6.33;;;;;16.84;87.75;101853.88;4992910;28;9097;-71
2023/10/09 03:45:35;;;;;;;;;7.00;7.00;;;;;16.86;87.57;101859.94;5009587;28;8952;-70
2023/10/09 03:48:02;;;;;;;;;7.00;7.00;;;;;16.85;87.23;101852.81;5009369;28;8997;-70
2023/10/09 03:50:38;;;;;;;;;6.00;4.67;;;;;16.88;87.88;101855.13;5009962;28;8949;-70
2023/10/09 03:53:08;;;;;;;;;6.00;6.00;;;;;16.87;87.68;101857.00;5009030;28;8954;-70
2023/10/09 03:55:37;;;;;;;;;5.50;5.50;;;;;16.89;87.61;101857.63;4992462;28;8835;-71
2023/10/09 03:58:05;;;;;;;;;6.75;4.00;;;;;16.90;87.81;101844.88;5009596;28;8904;-71
2023/10/09 04:00:34;;;;;;;;;6.25;6.25;;;;;16.91;87.49;101846.53;5009891;28;8843;-70
2023/10/09 04:03:02;;;;;;;;;8.67;8.00;;;;;16.90;87.48;101839.44;5007905;28;8970;-70
2023/10/09 04:05:29;;;;;;;;;7.33;6.67;;;;;16.91;87.52;101836.50;4975736;28;9633;-70
2023/10/09 04:07:58;;;;;;;;;7.00;7.00;;;;;16.94;87.36;101830.66;4990998;28;9082;-70
2023/10/09 04:10:43;;;;;;;;;6.50;6.50;;;;;16.97;87.49;101835.63;4991781;28;8948;-70
2023/10/09 04:13:17;;;;;;;;;5.00;5.00;;;;;16.98;87.19;101833.78;5008750;28;8848;-70
2023/10/09 04:15:43;;;;;;;;;8.00;5.00;;;;;16.97;87.44;101824.75;4991066;28;8990;-70
2023/10/09 04:18:20;;;;;;;;;13.00;11.33;;;;;16.95;87.69;101824.16;5009366;28;8934;-70
2023/10/09 04:21:15;;;;;;;;;9.00;8.25;;;;;17.00;87.50;101823.50;5009592;28;9000;-71
2023/10/09 04:23:36;;;;;;;;;3.75;3.75;;;;;17.01;87.51;101825.16;5000426;28;8879;-71
2023/10/09 04:26:10;;;;;;;;;7.00;6.00;;;;;17.02;87.40;101813.25;4991172;28;9609;-70
2023/10/09 04:28:37;;;;;;;;;8.33;7.67;;;;;17.04;87.24;101822.88;4992982;28;9809;-71
2023/10/09 04:31:06;;;;;;;;;5.67;5.67;;;;;17.05;87.32;101826.41;5009626;28;9109;-70
2023/10/09 04:36:46;;;;;;;;;8.33;8.33;;;;;17.05;87.21;101827.28;5006473;28;8957;-70
2023/10/09 04:41:32;;;;;;;;;7.25;6.50;;;;;17.07;87.58;101818.88;5009144;28;8980;-71
2023/10/09 04:49:49;;;;;;;;;7.33;7.33;;;;;17.06;87.29;101849.88;5004728;28;9566;-70
2023/10/09 05:03:09;;;;;;;;;6.67;6.67;;;;;17.11;87.29;101863.66;4998126;28;9037;-70
2023/10/09 05:16:25;;;;;;;;;9.33;9.00;;;;;17.16;87.33;101888.34;5010603;28;8840;-71
2023/10/09 05:18:56;;;;;;;;;6.67;5.67;;;;;17.15;87.48;101892.13;5010785;28;9051;-71
2023/10/09 05:21:36;;;;;;;;;7.75;7.00;;;;;17.16;87.14;101890.22;5012495;28;8946;-71
2023/10/09 05:32:15;;;;;;;;;7.25;6.50;;;;;17.17;86.60;101872.84;5006105;28;9019;-71
2023/10/09 05:35:04;;;;;;;;;8.50;8.00;;;;;17.18;86.66;101878.09;5012091;28;8879;-70
2023/10/09 05:37:26;;;;;;;;;7.50;6.00;;;;;17.19;86.46;101878.94;5011709;28;8840;-71
2023/10/09 05:47:53;;;;;;;;;5.25;5.25;;;;;17.22;85.89;101854.03;5007052;28;8847;-71
2023/10/09 06:03:45;;;;;;;;;10.25;7.50;;;;;17.23;86.07;101845.63;5007536;28;9040;-71
2023/10/09 06:06:18;;;;;;;;;5.00;5.00;;;;;17.24;85.51;101836.41;4994252;28;8974;-71
2023/10/09 06:19:11;;;;;;;;;8.25;4.25;;;;;17.27;85.64;101851.50;5006449;28;8867;-71
2023/10/09 06:24:09;;;;;;;;;3.25;3.25;;;;;17.30;85.38;101881.00;4994973;28;8875;-70
2023/10/09 06:26:36;;;;;;;;;6.00;5.50;;;;;17.29;85.54;101877.41;5005009;28;8844;-70
2023/10/09 06:29:15;;;;;;;;;3.67;3.67;;;;;17.29;85.29;101882.03;4991533;28;8860;-69
2023/10/09 06:31:57;;;;;;;;;8.00;4.25;;;;;17.29;85.59;101892.91;4997079;28;8980;-70
2023/10/09 06:34:35;;;;;;;;;5.25;5.00;;;;;17.29;85.66;101896.47;5005900;28;8942;-70
2023/10/09 06:37:14;;;;;;;;;4.75;4.75;;;;;17.29;85.73;101884.75;5007464;28;8861;-74
2023/10/09 06:45:15;;;;;;;;;6.00;6.00;;;;;17.28;85.97;101881.19;5009659;28;8839;-71
2023/10/09 06:47:55;;;;;;;;;4.50;3.00;;;;;17.29;85.60;101882.88;5000347;28;8823;-71
2023/10/09 06:50:42;;;;;;;;;6.50;6.50;;;;;17.34;85.39;101889.56;5007966;28;8857;-70
2023/10/09 06:55:48;;;;;;;;;5.25;4.75;;;;;17.31;85.63;101874.50;5009291;28;8847;-71
2023/10/09 06:58:22;;;;;;;;;7.00;7.00;;;;;17.32;85.61;101878.06;5009891;28;8977;-70
2023/10/09 07:03:32;;;;;;;;;6.50;6.25;;;;;17.31;85.78;101866.34;5004625;28;8954;-71
2023/10/09 07:06:20;;;;;;;;;7.50;7.50;;;;;17.30;85.88;101860.06;4992930;28;8904;-72
2023/10/09 07:16:59;;;;;;;;;9.75;9.75;;;;;17.28;86.69;101828.66;5005250;28;8958;-71
2023/10/09 07:22:23;;;;;;;;;7.25;6.00;;;;;17.32;86.63;101835.34;4993353;28;9090;-71
2023/10/09 07:24:57;;;;;;;;;7.00;7.00;;;;;17.35;86.32;101834.91;5009489;28;8828;-71
2023/10/09 07:27:43;;;;;;;;;5.00;4.75;;;;;17.37;86.60;101853.75;5002647;28;8949;-71
2023/10/09 07:38:19;;;;;;;;;7.75;6.75;;;;;17.43;86.44;101855.63;5006367;28;8844;-71
2023/10/09 07:46:32;;;;;;;;;10.50;8.00;;;;;17.50;86.23;101860.00;5009742;28;8829;-71
2023/10/09 07:49:08;;;;;;;;;6.50;6.00;;;;;17.52;86.28;101870.66;4998603;28;8863;-72
2023/10/09 07:51:37;;;;;;;;;8.33;7.00;;;;;17.55;86.21;101864.78;4974828;28;8879;-71
2023/10/09 07:54:07;;;;;;;;;3.75;3.75;;;;;17.58;86.39;101891.56;4987002;28;9056;-71
2023/10/09 07:56:41;;;;;;;;;7.50;7.00;;;;;17.60;86.04;101883.19;5004073;28;8845;-71
2023/10/09 07:59:11;;;;;;;;;6.75;5.50;;;;;17.62;86.21;101889.25;5029951;28;8838;-72
2023/10/09 08:01:52;;;;;;;;;8.00;6.75;;;;;17.63;86.13;101899.94;5000954;28;8843;-71
2023/10/09 08:04:37;;;;;;;;;10.00;7.25;;;;;17.64;86.34;101907.06;5008026;28;8852;-72
2023/10/09 08:07:08;;;;;;;;;10.25;9.25;;;;;17.66;86.50;101910.41;4983526;28;8839;-72
2023/10/09 08:18:03;;;;;;;;;10.50;7.75;;;;;17.74;86.34;101942.88;5003300;28;8853;-71
2023/10/09 08:21:19;;;;;;;;;7.00;7.00;;;;;17.77;86.24;101941.59;5009551;28;9531;-71
2023/10/09 08:23:29;;;;;;;;;10.50;9.00;;;;;17.79;86.05;101939.50;5008865;28;8837;-71
2023/10/09 08:26:15;;;;;;;;;7.75;7.75;;;;;17.82;86.00;101949.13;5011823;28;8836;-71
2023/10/09 08:28:45;;;;;;;;;8.67;8.00;;;;;17.82;86.02;101951.84;5000216;28;8832;-70
2023/10/09 08:31:19;;;;;;;;;8.25;7.50;;;;;17.85;85.94;101959.59;5007605;28;8828;-71
2023/10/09 08:33:56;;;;;;;;;7.25;6.00;;;;;17.89;85.66;101955.38;4991225;28;9595;-70
2023/10/09 08:36:28;;;;;;;;;12.25;9.75;;;;;17.86;85.46;101964.81;4994453;28;8910;-70
2023/10/09 08:38:59;;;;;;;;;11.50;9.00;;;;;17.89;85.34;101966.28;4993432;28;8836;-70
2023/10/09 08:41:29;;;;;;;;;9.50;8.25;;;;;17.93;85.20;101979.25;5010185;28;8872;-70
2023/10/09 08:43:57;;;;;;;;;7.25;7.00;;;;;17.95;85.05;101976.34;5003879;28;8883;-70
2023/10/09 08:46:26;;;;;;;;;8.00;8.00;;;;;17.98;85.09;101973.16;5005915;28;8854;-71
2023/10/09 08:48:56;;;;;;;;;12.50;11.00;;;;;17.98;84.74;101979.44;5012443;28;8847;-71
2023/10/09 08:51:25;;;;;;;;;7.00;7.00;;;;;18.00;84.69;101976.50;5012181;28;8820;-72
2023/10/09 08:53:52;;;;;;;;;11.75;10.25;;;;;17.99;84.57;101981.13;5012343;28;8891;-72
2023/10/09 08:56:24;;;;;;;;;8.75;8.00;;;;;18.00;84.39;101977.34;5019113;28;8832;-72
2023/10/09 08:58:52;;;;;;;;;11.00;10.00;;;;;18.03;84.52;101987.00;5012554;28;8847;-72
2023/10/09 09:01:21;;;;;;;;;8.75;8.00;;;;;18.07;84.47;101992.81;4997709;28;9553;-72
2023/10/09 09:03:50;;;;;;;;;8.50;8.00;;;;;18.10;84.23;102004.13;5010131;28;8856;-72
2023/10/09 09:06:19;;;;;;;;;6.50;6.50;;;;;18.12;84.19;102007.47;5013011;28;9042;-72
2023/10/09 09:08:46;;;;;;;;;7.00;6.25;;;;;18.16;83.95;101997.00;5012572;28;8864;-72
2023/10/09 09:11:17;;;;;;;;;9.50;8.00;;;;;18.21;83.75;101991.72;5006721;28;8838;-72
2023/10/09 09:13:50;;;;;;;;;12.00;9.75;;;;;18.24;83.62;101992.13;5005239;28;8830;-72
2023/10/09 09:16:22;;;;;;;;;7.00;7.00;;;;;18.28;83.60;101987.91;5012125;28;8850;-72
2023/10/09 09:19:22;;;;;;;;;11.50;8.00;;;;;18.31;83.33;101985.78;5002686;28;9534;-71
2023/10/09 09:21:58;;;;;;;;;9.25;9.25;;;;;18.33;83.30;101989.16;5007831;28;8864;-72
2023/10/09 09:26:59;;;;;;;;;11.50;9.00;;;;;18.37;83.29;101984.94;5012591;23;8867;-68
2023/10/09 09:29:40;;;;;;;;;11.00;7.00;;;;;18.40;83.02;101973.59;4979383;28;8840;-68
2023/10/09 09:32:20;;;;;;;;;10.75;9.50;;;;;18.41;82.88;101978.81;4991865;28;8843;-67
2023/10/09 09:34:49;;;;;;;;;13.00;9.75;;;;;18.40;83.09;101985.34;4963798;28;8947;-67
2023/10/09 09:37:21;;;;;;;;;8.25;6.75;;;;;18.41;82.92;101988.91;4960448;28;8847;-67
2023/10/09 09:39:51;;;;;;;;;10.00;9.50;;;;;18.44;83.10;101980.28;4964555;28;8842;-66
2023/10/09 09:42:26;;;;;;;;;11.25;8.50;;;;;18.46;83.01;101986.34;4953760;28;9584;-68
2023/10/09 09:44:55;;;;;;;;;8.75;6.00;;;;;18.47;82.81;101979.81;4936916;28;9624;-66
2023/10/09 09:47:28;;;;;;;;;10.00;8.25;;;;;18.47;82.80;101977.97;4965216;28;8967;-67
2023/10/09 09:49:59;;;;;;;;;10.00;9.00;;;;;18.49;83.00;101981.28;4964755;28;8839;-66
2023/10/09 09:52:29;;;;;;;;;8.00;7.75;;;;;18.52;82.81;101980.03;4955044;28;8873;-70
2023/10/09 09:54:58;;;;;;;;;8.00;6.50;;;;;18.55;82.59;101982.28;4953540;28;8834;-68
2023/10/09 09:57:28;;;;;;;;;10.75;10.00;;;;;18.58;82.72;101981.84;4949616;28;9641;-68
2023/10/09 09:59:57;;;;;;;;;9.50;8.00;;;;;18.61;82.50;101983.31;4964754;28;8863;-68
2023/10/09 10:02:35;;;;;;;;;9.75;5.75;;;;;18.63;82.53;101978.47;4955731;28;8830;-68
2023/10/09 10:05:07;;;;;;;;;9.75;7.50;;;;;18.63;82.39;101983.91;4953419;28;8917;-68
2023/10/09 10:07:42;;;;;;;;;7.75;7.75;;;;;18.63;82.35;101990.22;4954778;28;8966;-69
2023/10/09 10:10:34;;;;;;;;;7.50;5.50;;;;;18.65;82.35;102004.47;4961268;28;8828;-68
2023/10/09 10:13:01;;;;;;;;;10.00;7.00;;;;;18.68;82.30;102017.69;4953161;28;8854;-67
2023/10/09 10:15:57;;;;;;;;;7.00;7.00;;;;;18.71;82.26;102017.25;4953692;28;8854;-68
2023/10/09 10:18:24;;;;;;;;;11.75;10.25;;;;;18.71;82.01;102019.97;4939406;28;8849;-68
2023/10/09 10:21:16;;;;;;;;;11.75;11.75;;;;;18.74;82.05;102019.56;4967896;28;8846;-69
2023/10/09 10:23:47;;;;;;;;;9.75;8.00;;;;;18.73;81.91;102020.63;4972264;28;8843;-67
2023/10/09 10:26:25;;;;;;;;;7.25;7.25;;;;;18.79;81.73;102018.88;4953684;28;8904;-68
2023/10/09 10:29:33;;;;;;;;;9.00;9.00;;;;;18.83;81.39;102008.38;4949682;28;8864;-68
2023/10/09 10:32:08;;;;;;;;;8.50;8.25;;;;;18.84;81.29;102010.03;4951996;28;8879;-68
2023/10/09 10:34:55;;;;;;;;;8.50;8.00;;;;;18.86;81.50;102014.22;4960633;28;8853;-67
2023/10/09 10:38:03;;;;;;;;;10.25;8.00;;;;;18.81;81.27;102019.50;4951668;28;8976;-68
2023/10/09 10:40:40;;;;;;;;;10.25;10.25;;;;;18.78;81.40;102011.75;4958738;28;9562;-68
2023/10/09 10:43:30;;;;;;;;;11.00;7.25;;;;;18.75;81.35;102018.47;4947140;28;8847;-67
2023/10/09 10:46:04;;;;;;;;;8.75;7.00;;;;;18.73;81.18;102020.63;4954643;28;8831;-68
2023/10/09 10:48:37;;;;;;;;;9.25;8.75;;;;;18.75;81.19;102021.22;4951156;28;8868;-68
2023/10/09 10:51:04;;;;;;;;;7.75;6.75;;;;;18.76;81.12;102009.28;4944825;28;9032;-69
2023/10/09 10:53:52;;;;;;;;;8.00;6.50;;;;;18.82;80.99;102007.53;4943941;28;8894;-68
2023/10/09 10:56:19;;;;;;;;;10.00;8.00;;;;;18.87;81.07;102012.31;4951490;28;8854;-68
2023/10/09 11:04:24;;;;;;;;;6.00;6.00;;;;;19.00;80.50;102004.91;4965223;28;8855;-67
2023/10/09 11:06:51;;;;;;;;;7.50;5.50;;;;;19.00;80.31;102007.63;4937444;28;8861;-72
2023/10/09 11:09:21;;;;;;;;;8.75;8.00;;;;;18.98;80.31;102022.53;4935836;28;8853;-67
2023/10/09 11:11:55;;;;;;;;;7.50;6.50;;;;;18.98;80.29;102022.53;4952491;28;8988;-67
2023/10/09 11:14:24;;;;;;;;;5.25;5.25;;;;;18.98;80.39;102019.81;4934600;28;8850;-68
2023/10/09 11:16:57;;;;;;;;;7.00;7.00;;;;;18.98;80.54;102020.63;4952307;28;8851;-67
2023/10/09 11:19:31;;;;;;;;;7.00;7.00;;;;;19.00;80.40;102012.25;4952285;28;8842;-67
2023/10/09 11:24:34;;;;;;;;;9.00;5.25;;;;;19.08;80.08;102005.66;4934399;28;8869;-67
2023/10/09 11:27:07;;;;;;;;;6.75;6.75;;;;;19.06;80.06;102008.63;4950025;28;8876;-69
2023/10/09 11:32:22;;;;;;;;;10.50;7.25;;;;;19.09;80.06;102016.38;4927976;28;9631;-68
2023/10/09 11:34:53;;;;;;;;;5.25;4.25;;;;;19.09;80.09;102018.28;4950829;28;8920;-67
2023/10/09 11:39:57;;;;;;;;;7.75;7.25;;;;;19.04;80.04;102016.22;4949727;28;8982;-67
2023/10/09 11:45:24;;;;;;;;;9.25;5.00;;;;;19.06;79.64;102000.44;4949182;28;8836;-68
2023/10/09 11:47:59;;;;;;;;;7.50;6.00;;;;;19.07;80.03;101993.91;4944654;28;8920;-67
2023/10/09 11:50:42;;;;;;;;;7.00;5.00;;;;;19.10;80.05;101998.94;4952077;28;8852;-66
2023/10/09 11:55:52;;;;;;;;;5.00;4.75;;;;;19.15;79.87;102001.81;4960381;28;9773;-67
2023/10/09 11:58:22;;;;;;;;;4.25;4.25;;;;;19.17;79.86;101988.81;4944445;28;8853;-68
2023/10/09 12:00:59;;;;;;;;;6.25;6.00;;;;;19.17;80.04;101988.81;4963824;28;8923;-68
2023/10/09 12:03:29;;;;;;;;;6.25;5.25;;;;;19.18;79.76;101993.19;4952109;28;8876;-69
2023/10/09 12:05:58;;;;;;;;;5.50;5.50;;;;;19.17;79.83;101994.25;4947301;28;9577;-67
2023/10/09 12:08:26;;;;;;;;;7.25;7.25;;;;;19.18;79.86;102006.00;4944614;28;8856;-68
2023/10/09 12:10:54;;;;;;;;;6.50;5.00;;;;;19.18;79.87;102011.47;4930021;28;9711;-67
2023/10/09 12:13:23;;;;;;;;;3.50;3.50;;;;;19.14;79.92;102011.06;4933947;28;8936;-67
2023/10/09 12:15:51;;;;;;;;;7.25;7.25;;;;;19.12;80.00;102009.63;4950211;28;8940;-67
2023/10/09 12:18:20;;;;;;;;;5.00;4.00;;;;;19.10;80.23;101998.94;4951085;28;8825;-68
2023/10/09 12:21:00;;;;;;;;;7.00;6.25;;;;;19.06;80.04;102003.16;4947481;28;8838;-68
2023/10/09 12:23:27;;;;;;;;;5.50;4.75;;;;;19.06;79.95;102003.16;4951105;28;8916;-67
2023/10/09 12:25:57;;;;;;;;;6.00;6.00;;;;;19.03;80.06;102004.44;4930338;28;8869;-67
2023/10/09 12:28:23;;;;;;;;;7.50;5.50;;;;;19.01;79.89;102008.47;4950190;29;8836;-68
2023/10/09 12:30:50;;;;;;;;;7.50;6.50;;;;;18.99;80.07;102016.03;4945659;29;8856;-67
2023/10/09 12:33:19;;;;;;;;;7.00;6.25;;;;;18.93;79.99;102009.56;4944816;28;8825;-70
2023/10/09 12:35:47;;;;;;;;;6.00;5.50;;;;;18.97;79.94;102012.69;4949520;28;9028;-67
2023/10/09 12:38:18;;;;;;;;;6.00;6.00;;;;;18.96;80.13;102014.59;4950713;29;8833;-68
2023/10/09 12:40:50;;;;;;;;;5.75;5.50;;;;;18.99;79.82;102014.13;4951245;28;8836;-68
2023/10/09 12:43:21;;;;;;;;;4.25;4.25;;;;;18.97;80.07;102012.69;4951233;28;8863;-68
2023/10/09 12:45:48;;;;;;;;;4.00;4.00;;;;;18.99;80.03;102016.03;4950041;28;9529;-67
2023/10/09 12:48:15;;;;;;;;;6.50;6.50;;;;;18.96;79.92;102009.13;4951256;29;8905;-67
2023/10/09 12:50:41;;;;;;;;;3.50;3.50;;;;;18.97;79.99;102002.59;4950878;28;8904;-67
2023/10/09 12:53:08;;;;;;;;;4.50;4.00;;;;;18.98;80.46;102011.63;4950830;28;8850;-68
2023/10/09 12:55:42;;;;;;;;;6.00;6.00;;;;;19.00;80.16;102001.34;4950975;28;8892;-67
2023/10/09 12:58:14;;;;;;;;;8.00;8.00;;;;;18.98;80.04;102006.16;4949946;28;8842;-67
2023/10/09 13:00:48;;;;;;;;;7.75;6.25;;;;;18.94;79.91;102015.84;4934149;29;9639;-67
2023/10/09 13:03:18;;;;;;;;;10.00;8.00;;;;;18.95;79.88;102012.06;4950018;28;9560;-67
2023/10/09 13:05:56;;;;;;;;;9.00;9.00;;;;;18.95;79.82;102012.06;4950643;28;8992;-68
2023/10/09 13:08:31;;;;;;;;;7.75;7.00;;;;;18.97;79.55;102010.78;4949895;28;8914;-68
2023/10/09 13:11:10;;;;;;;;;4.75;4.75;;;;;18.97;79.45;102008.06;4933710;28;8865;-68
2023/10/09 13:13:40;;;;;;;;;7.25;7.00;;;;;18.98;78.95;102017.09;4933821;29;8846;-68
2023/10/09 13:16:13;;;;;;;;;9.75;9.00;;;;;18.94;78.96;102018.59;4933270;28;9651;-67
2023/10/09 13:18:41;;;;;;;;;8.50;8.00;;;;;18.88;78.96;102014.84;4932658;29;9566;-68
2023/10/09 13:21:07;;;;;;;;;8.00;6.75;;;;;18.90;78.90;102014.63;4942581;28;8861;-67
2023/10/09 13:23:40;;;;;;;;;6.50;6.00;;;;;18.88;78.85;102011.25;4949783;29;8916;-68
2023/10/09 13:26:17;;;;;;;;;6.50;5.75;;;;;18.89;78.78;102013.78;4950115;28;8838;-67
2023/10/09 13:28:59;;;;;;;;;6.00;6.00;;;;;18.91;79.04;102010.84;4936906;28;9266;-68
2023/10/09 13:31:26;;;;;;;;;10.25;9.50;;;;;18.89;78.85;102010.22;4936257;28;8856;-68
2023/10/09 13:33:56;;;;;;;;;7.00;6.00;;;;;18.93;79.04;102014.19;4953992;28;8842;-67
2023/10/09 13:36:32;;;;;;;;;6.50;5.50;;;;;18.98;78.97;102007.00;4936409;28;8846;-68
2023/10/09 13:39:22;;;;;;;;;6.25;6.25;;;;;19.05;78.89;102006.97;4954660;28;8834;-68
2023/10/09 13:42:06;;;;;;;;;7.25;7.00;;;;;19.09;78.77;102001.91;4954224;28;9580;-68
2023/10/09 13:44:34;;;;;;;;;8.00;8.00;;;;;19.13;79.15;102006.69;4946858;28;8880;-67
2023/10/09 13:47:19;;;;;;;;;7.50;6.50;;;;;19.21;79.02;102000.94;4953775;28;8830;-67
2023/10/09 13:49:50;;;;;;;;;6.00;6.00;;;;;19.27;78.72;102004.66;4948114;28;8854;-68
2023/10/09 13:52:21;;;;;;;;;5.25;5.25;;;;;19.30;78.35;101998.75;4958595;28;8882;-68
2023/10/09 13:54:49;;;;;;;;;9.50;7.75;;;;;19.26;78.47;101997.53;4943903;28;8865;-68
2023/10/09 13:57:15;;;;;;;;;7.75;5.75;;;;;19.25;78.74;101993.16;4956970;28;8820;-67
2023/10/09 13:59:51;;;;;;;;;8.00;8.00;;;;;19.24;78.71;101995.03;4952879;28;8832;-68
2023/10/09 14:02:18;;;;;;;;;10.75;9.00;;;;;19.25;78.74;101993.97;4952368;28;8959;-67
2023/10/09 14:04:47;;;;;;;;;8.00;8.00;;;;;19.26;78.88;101997.53;4951795;28;8854;-68
2023/10/09 14:07:16;;;;;;;;;8.00;7.75;;;;;19.27;78.92;101997.31;4953254;28;8842;-68
2023/10/09 14:12:11;;;;;;;;;8.25;8.25;;;;;19.24;79.04;101986.84;4951742;28;8838;-65
2023/10/09 14:14:48;;;;;;;;;7.25;7.25;;;;;19.27;79.41;101993.75;4950647;28;8840;-68
2023/10/09 14:17:25;;;;;;;;;9.00;9.00;;;;;19.27;79.35;102005.50;4950034;28;8847;-67
2023/10/09 14:22:53;;;;;;;;;8.50;8.50;;;;;19.29;79.37;101991.63;4936940;28;8846;-67
2023/10/09 14:25:20;;;;;;;;;9.75;7.00;;;;;19.30;79.51;101990.56;4951973;28;8860;-67
2023/10/09 14:27:52;;;;;;;;;12.00;10.00;;;;;19.31;79.37;101999.59;4950744;28;8842;-67
2023/10/09 14:30:30;;;;;;;;;8.50;8.50;;;;;19.33;79.43;101994.75;4943363;28;8830;-67
2023/10/09 14:32:57;;;;;;;;;10.75;10.00;;;;;19.35;79.27;102004.38;4949902;28;8837;-69
2023/10/09 14:35:30;;;;;;;;;10.25;10.25;;;;;19.35;79.35;101992.63;4959880;28;8861;-68
2023/10/09 14:37:57;;;;;;;;;13.00;12.50;;;;;19.33;79.36;101994.75;4935499;28;8913;-68
2023/10/09 14:40:29;;;;;;;;;14.50;14.25;;;;;19.31;79.51;101992.22;4949224;28;8842;-68